createdAt,value
2018-09-27T00:00:22.414Z,57.00
2018-09-27T00:00:54.037Z,57.05
2018-09-27T00:01:25.670Z,57.07
2018-09-27T00:01:57.275Z,56.62
2018-09-27T00:02:28.879Z,57.07
2018-09-27T00:03:00.482Z,57.01
2018-09-27T00:03:32.086Z,57.08
2018-09-27T00:04:03.684Z,57.17
2018-09-27T00:04:35.291Z,56.94
2018-09-27T00:05:06.894Z,57.12
2018-09-27T00:05:38.504Z,56.94
2018-09-27T00:06:10.132Z,57.03
2018-09-27T00:06:41.725Z,56.96
2018-09-27T00:07:13.324Z,57.01
2018-09-27T00:07:44.927Z,56.94
2018-09-27T00:08:16.530Z,56.95
2018-09-27T00:08:48.138Z,56.98
2018-09-27T00:09:19.751Z,57.23
2018-09-27T00:09:51.358Z,57.25
2018-09-27T00:10:22.964Z,57.23
2018-09-27T00:10:54.570Z,57.64
2018-09-27T00:11:26.174Z,57.45
2018-09-27T00:11:57.779Z,57.32
2018-09-27T00:12:29.390Z,57.74
2018-09-27T00:13:00.994Z,57.51
2018-09-27T00:13:32.606Z,57.46
2018-09-27T00:14:04.200Z,57.29
2018-09-27T00:14:35.792Z,57.73
2018-09-27T00:15:07.398Z,57.59
2018-09-27T00:15:38.988Z,57.65
2018-09-27T00:16:10.618Z,57.79
2018-09-27T00:16:42.222Z,57.97
2018-09-27T00:17:13.833Z,57.91
2018-09-27T00:17:45.438Z,57.59
2018-09-27T00:18:17.042Z,57.73
2018-09-27T00:18:48.657Z,57.94
2018-09-27T00:19:20.267Z,57.81
2018-09-27T00:19:51.871Z,57.93
2018-09-27T00:20:23.486Z,57.87
2018-09-27T00:20:55.080Z,57.82
2018-09-27T00:21:26.682Z,57.83
2018-09-27T00:21:58.272Z,58.00
2018-09-27T00:22:29.878Z,57.96
2018-09-27T00:23:01.484Z,57.99
2018-09-27T00:23:33.090Z,57.71
2018-09-27T00:24:04.694Z,57.84
2018-09-27T00:24:36.299Z,57.92
2018-09-27T00:25:07.907Z,58.02
2018-09-27T00:25:39.510Z,58.15
2018-09-27T00:26:11.148Z,57.79
2018-09-27T00:26:42.799Z,57.86
2018-09-27T00:27:14.407Z,57.71
2018-09-27T00:27:45.996Z,57.84
2018-09-27T00:28:17.592Z,57.73
2018-09-27T00:28:49.200Z,57.93
2018-09-27T00:29:20.797Z,57.98
2018-09-27T00:29:52.394Z,57.99
2018-09-27T00:30:23.984Z,57.95
2018-09-27T00:30:55.566Z,57.99
2018-09-27T00:31:27.171Z,57.97
2018-09-27T00:31:58.800Z,58.02
2018-09-27T00:32:30.379Z,58.02
2018-09-27T00:33:01.987Z,57.86
2018-09-27T00:33:33.576Z,57.97
2018-09-27T00:34:05.187Z,58.01
2018-09-27T00:34:36.795Z,58.03
2018-09-27T00:35:08.384Z,58.03
2018-09-27T00:35:39.991Z,58.12
2018-09-27T00:36:11.602Z,58.02
2018-09-27T00:36:43.218Z,57.90
2018-09-27T00:37:14.795Z,58.00
2018-09-27T00:37:46.390Z,58.06
2018-09-27T00:38:17.994Z,57.86
2018-09-27T00:38:49.584Z,58.09
2018-09-27T00:39:21.190Z,57.97
2018-09-27T00:39:52.780Z,58.05
2018-09-27T00:40:24.376Z,57.94
2018-09-27T00:40:55.983Z,58.28
2018-09-27T00:41:27.597Z,58.28
2018-09-27T00:41:59.238Z,58.28
2018-09-27T00:42:30.843Z,58.14
2018-09-27T00:43:02.436Z,58.12
2018-09-27T00:43:34.099Z,58.05
2018-09-27T00:44:05.688Z,58.17
2018-09-27T00:44:37.291Z,57.93
2018-09-27T00:45:08.886Z,58.12
2018-09-27T00:45:40.476Z,58.25
2018-09-27T00:46:12.064Z,58.48
2018-09-27T00:46:43.718Z,58.10
2018-09-27T00:47:15.298Z,58.27
2018-09-27T00:47:46.892Z,58.22
2018-09-27T00:48:18.494Z,58.08
2018-09-27T00:48:50.094Z,58.26
2018-09-27T00:49:21.694Z,58.18
2018-09-27T00:49:53.270Z,58.19
2018-09-27T00:50:24.847Z,58.09
2018-09-27T00:50:56.438Z,58.08
2018-09-27T00:51:28.039Z,58.15
2018-09-27T00:51:59.677Z,58.48
2018-09-27T00:52:31.272Z,58.36
2018-09-27T00:53:02.864Z,58.36
2018-09-27T00:53:34.447Z,58.44
2018-09-27T00:54:06.046Z,58.46
2018-09-27T00:54:37.640Z,58.43
2018-09-27T00:55:09.254Z,58.48
2018-09-27T00:55:40.857Z,58.51
2018-09-27T00:56:12.462Z,58.63
2018-09-27T00:56:44.070Z,58.47
2018-09-27T00:57:15.696Z,58.54
2018-09-27T00:57:47.297Z,58.56
2018-09-27T00:58:18.889Z,58.51
2018-09-27T00:58:50.499Z,58.57
2018-09-27T00:59:22.082Z,58.83
2018-09-27T00:59:53.683Z,58.43
2018-09-27T01:00:25.270Z,58.54
2018-09-27T01:00:56.879Z,58.69
2018-09-27T01:01:28.486Z,58.94
2018-09-27T01:02:00.127Z,58.79
2018-09-27T01:02:31.720Z,58.67
2018-09-27T01:03:03.299Z,59.20
2018-09-27T01:03:35.228Z,58.90
2018-09-27T01:04:06.807Z,59.32
2018-09-27T01:04:38.413Z,59.41
2018-09-27T01:05:10.014Z,59.60
2018-09-27T01:05:41.663Z,59.95
2018-09-27T01:06:13.268Z,59.15
2018-09-27T01:06:44.861Z,59.21
2018-09-27T01:07:16.498Z,59.19
2018-09-27T01:07:48.102Z,58.79
2018-09-27T01:08:19.691Z,59.04
2018-09-27T01:08:51.294Z,58.89
2018-09-27T01:09:22.898Z,58.97
2018-09-27T01:09:54.492Z,58.75
2018-09-27T01:10:26.094Z,59.19
2018-09-27T01:10:57.690Z,59.05
2018-09-27T01:11:29.292Z,58.82
2018-09-27T01:12:00.933Z,58.84
2018-09-27T01:12:32.532Z,58.84
2018-09-27T01:13:04.129Z,58.96
2018-09-27T01:13:35.738Z,58.63
2018-09-27T01:14:07.342Z,59.19
2018-09-27T01:14:38.955Z,59.18
2018-09-27T01:15:10.544Z,59.30
2018-09-27T01:15:42.146Z,59.47
2018-09-27T01:16:13.754Z,59.54
2018-09-27T01:16:45.353Z,59.47
2018-09-27T01:17:16.991Z,59.35
2018-09-27T01:17:48.580Z,59.65
2018-09-27T01:18:20.171Z,59.91
2018-09-27T01:18:51.775Z,59.84
2018-09-27T01:19:23.360Z,59.68
2018-09-27T01:19:54.952Z,59.76
2018-09-27T01:20:26.544Z,59.89
2018-09-27T01:20:58.126Z,59.49
2018-09-27T01:21:29.727Z,59.92
2018-09-27T01:22:01.335Z,59.81
2018-09-27T01:22:32.955Z,59.86
2018-09-27T01:23:04.559Z,60.17
2018-09-27T01:23:36.166Z,60.32
2018-09-27T01:24:07.756Z,60.45
2018-09-27T01:24:39.345Z,60.31
2018-09-27T01:25:10.948Z,60.49
2018-09-27T01:25:42.545Z,60.85
2018-09-27T01:26:14.135Z,60.80
2018-09-27T01:26:46.030Z,60.76
2018-09-27T01:27:17.643Z,60.18
2018-09-27T01:27:49.240Z,59.98
2018-09-27T01:28:20.845Z,60.61
2018-09-27T01:28:52.450Z,59.90
2018-09-27T01:29:24.080Z,60.28
2018-09-27T01:29:55.676Z,60.03
2018-09-27T01:30:27.278Z,60.25
2018-09-27T01:30:58.868Z,60.72
2018-09-27T01:31:30.474Z,60.82
2018-09-27T01:32:02.069Z,60.27
2018-09-27T01:32:33.715Z,60.64
2018-09-27T01:33:05.312Z,60.76
2018-09-27T01:33:36.923Z,60.51
2018-09-27T01:34:08.523Z,60.98
2018-09-27T01:34:40.131Z,60.52
2018-09-27T01:35:11.728Z,60.78
2018-09-27T01:35:43.316Z,60.68
2018-09-27T01:36:14.904Z,60.91
2018-09-27T01:36:46.496Z,60.91
2018-09-27T01:37:18.106Z,60.64
2018-09-27T01:37:49.710Z,60.69
2018-09-27T01:38:21.304Z,60.80
2018-09-27T01:38:52.892Z,61.01
2018-09-27T01:39:24.494Z,60.81
2018-09-27T01:39:56.089Z,60.77
2018-09-27T01:40:27.689Z,60.95
2018-09-27T01:40:59.280Z,60.83
2018-09-27T01:41:30.872Z,61.12
2018-09-27T01:42:02.468Z,61.45
2018-09-27T01:42:34.096Z,61.15
2018-09-27T01:43:05.698Z,60.92
2018-09-27T01:43:37.288Z,60.80
2018-09-27T01:44:08.894Z,60.99
2018-09-27T01:44:40.499Z,60.99
2018-09-27T01:45:12.101Z,61.30
2018-09-27T01:45:43.706Z,61.75
2018-09-27T01:46:15.290Z,60.90
2018-09-27T01:46:46.891Z,61.11
2018-09-27T01:47:18.526Z,61.07
2018-09-27T01:47:50.120Z,61.36
2018-09-27T01:48:21.722Z,61.26
2018-09-27T01:48:53.330Z,61.73
2018-09-27T01:49:24.953Z,61.27
2018-09-27T01:49:56.581Z,60.89
2018-09-27T01:50:28.177Z,61.18
2018-09-27T01:50:59.764Z,61.33
2018-09-27T01:51:31.353Z,61.36
2018-09-27T01:52:02.948Z,61.31
2018-09-27T01:52:34.587Z,61.65
2018-09-27T01:53:06.203Z,61.49
2018-09-27T01:53:37.801Z,61.61
2018-09-27T01:54:09.411Z,61.38
2018-09-27T01:54:41.004Z,61.65
2018-09-27T01:55:12.606Z,61.45
2018-09-27T01:55:44.222Z,61.66
2018-09-27T01:56:15.834Z,61.25
2018-09-27T01:56:47.443Z,61.32
2018-09-27T01:57:19.055Z,61.48
2018-09-27T01:57:50.671Z,61.19
2018-09-27T01:58:22.256Z,60.99
2018-09-27T01:58:53.844Z,61.16
2018-09-27T01:59:25.432Z,61.23
2018-09-27T01:59:57.034Z,61.28
2018-09-27T02:00:28.615Z,61.63
2018-09-27T02:01:00.222Z,61.43
2018-09-27T02:01:31.813Z,61.98
2018-09-27T02:02:03.414Z,60.91
2018-09-27T02:02:35.045Z,61.30
2018-09-27T02:03:06.640Z,61.68
2018-09-27T02:03:38.232Z,61.62
2018-09-27T02:04:09.840Z,61.47
2018-09-27T02:04:41.433Z,61.45
2018-09-27T02:05:13.034Z,61.13
2018-09-27T02:05:44.614Z,61.25
2018-09-27T02:06:16.219Z,60.94
2018-09-27T02:06:47.830Z,61.07
2018-09-27T02:07:19.420Z,61.01
2018-09-27T02:07:51.220Z,60.85
2018-09-27T02:08:22.826Z,61.52
2018-09-27T02:08:54.430Z,61.36
2018-09-27T02:09:26.028Z,60.88
2018-09-27T02:09:57.616Z,60.90
2018-09-27T02:10:29.219Z,61.39
2018-09-27T02:11:00.831Z,60.84
2018-09-27T02:11:32.424Z,60.82
2018-09-27T02:12:04.012Z,60.70
2018-09-27T02:12:35.640Z,60.87
2018-09-27T02:13:07.236Z,60.61
2018-09-27T02:13:38.828Z,60.61
2018-09-27T02:14:10.425Z,60.81
2018-09-27T02:14:42.020Z,60.83
2018-09-27T02:15:13.623Z,60.57
2018-09-27T02:15:45.230Z,60.95
2018-09-27T02:16:16.839Z,60.73
2018-09-27T02:16:48.443Z,60.66
2018-09-27T02:17:20.045Z,60.81
2018-09-27T02:17:51.651Z,60.43
2018-09-27T02:18:23.244Z,60.57
2018-09-27T02:18:54.847Z,60.30
2018-09-27T02:19:26.444Z,60.50
2018-09-27T02:19:58.032Z,60.57
2018-09-27T02:20:29.634Z,60.59
2018-09-27T02:21:01.210Z,60.76
2018-09-27T02:21:32.814Z,60.76
2018-09-27T02:22:04.408Z,61.00
2018-09-27T02:22:36.047Z,60.32
2018-09-27T02:23:07.661Z,61.00
2018-09-27T02:23:39.267Z,60.83
2018-09-27T02:24:10.869Z,60.75
2018-09-27T02:24:42.472Z,60.59
2018-09-27T02:25:14.058Z,60.52
2018-09-27T02:25:45.649Z,61.02
2018-09-27T02:26:17.254Z,60.50
2018-09-27T02:26:48.844Z,60.44
2018-09-27T02:27:20.436Z,60.51
2018-09-27T02:27:52.060Z,60.42
2018-09-27T02:28:23.662Z,60.48
2018-09-27T02:28:55.252Z,60.78
2018-09-27T02:29:26.844Z,60.84
2018-09-27T02:29:58.446Z,60.72
2018-09-27T02:30:30.034Z,60.60
2018-09-27T02:31:01.624Z,60.63
2018-09-27T02:31:33.230Z,60.64
2018-09-27T02:32:04.824Z,60.52
2018-09-27T02:32:36.416Z,60.69
2018-09-27T02:33:08.039Z,60.64
2018-09-27T02:33:39.627Z,60.61
2018-09-27T02:34:11.220Z,60.50
2018-09-27T02:34:42.808Z,60.50
2018-09-27T02:35:14.405Z,60.24
2018-09-27T02:35:46.010Z,60.28
2018-09-27T02:36:17.590Z,60.35
2018-09-27T02:36:49.195Z,60.45
2018-09-27T02:37:20.802Z,60.33
2018-09-27T02:37:52.429Z,60.44
2018-09-27T02:38:24.038Z,60.25
2018-09-27T02:38:55.634Z,60.26
2018-09-27T02:39:27.241Z,60.18
2018-09-27T02:39:58.836Z,60.14
2018-09-27T02:40:30.438Z,60.35
2018-09-27T02:41:02.055Z,61.16
2018-09-27T02:41:33.652Z,59.65
2018-09-27T02:42:05.231Z,60.03
2018-09-27T02:42:36.824Z,59.95
2018-09-27T02:43:08.458Z,60.07
2018-09-27T02:43:40.052Z,59.99
2018-09-27T02:44:11.645Z,60.07
2018-09-27T02:44:43.227Z,60.53
2018-09-27T02:45:14.830Z,60.32
2018-09-27T02:45:46.435Z,60.43
2018-09-27T02:46:18.033Z,60.16
2018-09-27T02:46:49.621Z,60.32
2018-09-27T02:47:21.224Z,60.18
2018-09-27T02:47:52.816Z,60.57
2018-09-27T02:48:24.449Z,60.21
2018-09-27T02:48:56.044Z,60.37
2018-09-27T02:49:27.647Z,59.97
2018-09-27T02:49:59.226Z,60.14
2018-09-27T02:50:30.842Z,60.04
2018-09-27T02:51:02.455Z,59.37
2018-09-27T02:51:34.048Z,59.05
2018-09-27T02:52:05.640Z,58.78
2018-09-27T02:52:37.232Z,58.91
2018-09-27T02:53:08.885Z,58.67
2018-09-27T02:53:40.481Z,58.49
2018-09-27T02:54:12.081Z,58.73
2018-09-27T02:54:43.672Z,58.90
2018-09-27T02:55:15.255Z,58.93
2018-09-27T02:55:46.858Z,58.70
2018-09-27T02:56:18.460Z,58.67
2018-09-27T02:56:50.056Z,58.55
2018-09-27T02:57:21.654Z,58.63
2018-09-27T02:57:53.234Z,58.73
2018-09-27T02:58:24.861Z,58.75
2018-09-27T02:58:56.450Z,58.77
2018-09-27T02:59:28.035Z,58.83
2018-09-27T02:59:59.632Z,58.91
2018-09-27T03:00:31.215Z,55.17
2018-09-27T03:01:02.806Z,51.06
2018-09-27T03:01:34.392Z,47.95
2018-09-27T03:02:05.987Z,45.43
2018-09-27T03:02:37.595Z,45.05
2018-09-27T03:03:09.234Z,44.74
2018-09-27T03:03:40.838Z,43.72
2018-09-27T03:04:12.452Z,43.05
2018-09-27T03:04:44.066Z,41.96
2018-09-27T03:05:15.647Z,40.86
2018-09-27T03:05:47.241Z,45.93
2018-09-27T03:06:18.823Z,49.22
2018-09-27T03:06:50.416Z,51.73
2018-09-27T03:07:22.012Z,51.51
2018-09-27T03:07:53.605Z,50.41
2018-09-27T03:08:25.247Z,50.28
2018-09-27T03:08:56.826Z,48.99
2018-09-27T03:09:28.417Z,49.16
2018-09-27T03:10:00.017Z,48.99
2018-09-27T03:10:31.599Z,49.51
2018-09-27T03:11:03.177Z,49.40
2018-09-27T03:11:34.771Z,49.59
2018-09-27T03:12:06.386Z,49.72
2018-09-27T03:12:37.970Z,49.81
2018-09-27T03:13:09.575Z,49.65
2018-09-27T03:13:41.228Z,49.83
2018-09-27T03:14:12.825Z,49.93
2018-09-27T03:14:44.417Z,50.34
2018-09-27T03:15:16.023Z,50.34
2018-09-27T03:15:47.616Z,50.34
2018-09-27T03:16:19.216Z,50.64
2018-09-27T03:16:50.804Z,50.80
2018-09-27T03:17:22.396Z,51.00
2018-09-27T03:17:53.989Z,51.11
2018-09-27T03:18:25.622Z,51.11
2018-09-27T03:18:57.253Z,51.51
2018-09-27T03:19:28.860Z,51.53
2018-09-27T03:20:00.467Z,51.49
2018-09-27T03:20:32.063Z,51.69
2018-09-27T03:21:03.740Z,51.73
2018-09-27T03:21:35.288Z,51.83
2018-09-27T03:22:06.892Z,52.08
2018-09-27T03:22:38.501Z,52.15
2018-09-27T03:23:10.096Z,52.11
2018-09-27T03:23:41.747Z,52.36
2018-09-27T03:24:13.332Z,52.36
2018-09-27T03:24:44.921Z,52.57
2018-09-27T03:25:16.519Z,52.67
2018-09-27T03:25:48.124Z,52.75
2018-09-27T03:26:19.712Z,52.70
2018-09-27T03:26:51.290Z,52.79
2018-09-27T03:27:22.885Z,52.85
2018-09-27T03:27:54.491Z,52.97
2018-09-27T03:28:26.088Z,53.01
2018-09-27T03:28:57.698Z,53.15
2018-09-27T03:29:29.299Z,53.09
2018-09-27T03:30:00.891Z,53.16
2018-09-27T03:30:32.480Z,53.25
2018-09-27T03:31:04.081Z,53.33
2018-09-27T03:31:35.686Z,53.49
2018-09-27T03:32:07.290Z,53.61
2018-09-27T03:32:38.885Z,53.54
2018-09-27T03:33:10.490Z,53.64
2018-09-27T03:33:42.125Z,53.52
2018-09-27T03:34:13.712Z,53.67
2018-09-27T03:34:45.300Z,53.62
2018-09-27T03:35:16.948Z,53.83
2018-09-27T03:35:48.522Z,53.85
2018-09-27T03:36:20.112Z,53.95
2018-09-27T03:36:51.719Z,53.97
2018-09-27T03:37:23.314Z,53.93
2018-09-27T03:37:54.918Z,53.93
2018-09-27T03:38:26.517Z,53.99
2018-09-27T03:38:58.140Z,53.96
2018-09-27T03:39:29.728Z,53.97
2018-09-27T03:40:01.352Z,54.05
2018-09-27T03:40:32.965Z,54.15
2018-09-27T03:41:04.555Z,54.12
2018-09-27T03:41:36.153Z,54.22
2018-09-27T03:42:07.769Z,54.20
2018-09-27T03:42:39.360Z,54.27
2018-09-27T03:43:10.962Z,54.27
2018-09-27T03:43:42.584Z,54.34
2018-09-27T03:44:14.185Z,54.38
2018-09-27T03:44:45.786Z,54.38
2018-09-27T03:45:17.398Z,54.42
2018-09-27T03:45:49.002Z,54.44
2018-09-27T03:46:20.592Z,54.47
2018-09-27T03:46:52.190Z,54.51
2018-09-27T03:47:23.788Z,54.45
2018-09-27T03:47:55.382Z,54.54
2018-09-27T03:48:26.972Z,54.53
2018-09-27T03:48:58.591Z,54.55
2018-09-27T03:49:30.195Z,54.58
2018-09-27T03:50:01.803Z,54.67
2018-09-27T03:50:33.401Z,54.66
2018-09-27T03:51:04.992Z,54.71
2018-09-27T03:51:36.596Z,54.69
2018-09-27T03:52:08.199Z,54.72
2018-09-27T03:52:39.810Z,54.72
2018-09-27T03:53:11.405Z,54.77
2018-09-27T03:53:43.042Z,54.82
2018-09-27T03:54:14.650Z,54.82
2018-09-27T03:54:46.241Z,54.86
2018-09-27T03:55:17.835Z,54.87
2018-09-27T03:55:49.420Z,54.89
2018-09-27T03:56:21.027Z,54.92
2018-09-27T03:56:52.636Z,54.93
2018-09-27T03:57:24.238Z,54.95
2018-09-27T03:57:55.847Z,54.99
2018-09-27T03:58:27.464Z,55.03
2018-09-27T03:58:59.122Z,55.05
2018-09-27T03:59:30.727Z,55.08
2018-09-27T04:00:02.324Z,55.11
2018-09-27T04:00:33.926Z,55.14
2018-09-27T04:01:05.535Z,55.15
2018-09-27T04:01:37.128Z,55.19
2018-09-27T04:02:08.730Z,55.19
2018-09-27T04:02:40.342Z,55.23
2018-09-27T04:03:12.004Z,55.16
2018-09-27T04:03:43.598Z,55.24
2018-09-27T04:04:15.189Z,55.29
2018-09-27T04:04:46.780Z,55.34
2018-09-27T04:05:18.368Z,55.37
2018-09-27T04:05:49.976Z,55.38
2018-09-27T04:06:21.605Z,55.37
2018-09-27T04:06:53.194Z,55.38
2018-09-27T04:07:24.788Z,55.38
2018-09-27T04:07:56.384Z,55.43
2018-09-27T04:08:27.976Z,55.44
2018-09-27T04:08:59.610Z,55.51
2018-09-27T04:09:31.209Z,55.48
2018-09-27T04:10:02.805Z,55.49
2018-09-27T04:10:34.405Z,55.50
2018-09-27T04:11:05.996Z,55.58
2018-09-27T04:11:37.602Z,55.56
2018-09-27T04:12:09.207Z,55.58
2018-09-27T04:12:40.841Z,55.56
2018-09-27T04:13:12.402Z,55.62
2018-09-27T04:13:44.024Z,55.65
2018-09-27T04:14:15.633Z,55.69
2018-09-27T04:14:47.224Z,55.66
2018-09-27T04:15:18.825Z,55.68
2018-09-27T04:15:50.457Z,55.70
2018-09-27T04:16:22.051Z,55.72
2018-09-27T04:16:53.640Z,55.77
2018-09-27T04:17:25.242Z,55.72
2018-09-27T04:17:56.823Z,55.77
2018-09-27T04:18:28.412Z,55.77
2018-09-27T04:19:00.031Z,55.76
2018-09-27T04:19:31.635Z,55.81
2018-09-27T04:20:03.243Z,55.83
2018-09-27T04:20:34.850Z,55.83
2018-09-27T04:21:06.440Z,55.87
2018-09-27T04:21:38.076Z,55.91
2018-09-27T04:22:09.643Z,55.90
2018-09-27T04:22:41.246Z,55.88
2018-09-27T04:23:12.850Z,55.90
2018-09-27T04:23:44.466Z,55.99
2018-09-27T04:24:16.072Z,55.95
2018-09-27T04:24:47.654Z,56.02
2018-09-27T04:25:19.255Z,56.02
2018-09-27T04:25:50.863Z,56.03
2018-09-27T04:26:22.452Z,56.04
2018-09-27T04:26:55.146Z,56.00
2018-09-27T04:27:26.740Z,56.04
2018-09-27T04:27:58.333Z,56.02
2018-09-27T04:28:29.910Z,56.06
2018-09-27T04:29:01.500Z,56.09
2018-09-27T04:29:33.110Z,56.05
2018-09-27T04:30:04.715Z,56.05
2018-09-27T04:30:36.318Z,56.18
2018-09-27T04:31:07.912Z,56.19
2018-09-27T04:31:39.522Z,56.01
2018-09-27T04:32:11.126Z,56.18
2018-09-27T04:32:42.724Z,56.17
2018-09-27T04:33:14.316Z,56.07
2018-09-27T04:33:45.931Z,56.08
2018-09-27T04:34:17.537Z,56.00
2018-09-27T04:34:49.128Z,56.11
2018-09-27T04:35:20.723Z,56.14
2018-09-27T04:35:52.331Z,56.12
2018-09-27T04:36:23.939Z,56.30
2018-09-27T04:36:55.523Z,56.25
2018-09-27T04:37:27.119Z,56.15
2018-09-27T04:37:58.712Z,56.11
2018-09-27T04:38:30.315Z,56.11
2018-09-27T04:39:01.945Z,56.24
2018-09-27T04:39:33.540Z,56.24
2018-09-27T04:40:05.147Z,56.21
2018-09-27T04:40:36.727Z,56.24
2018-09-27T04:41:08.303Z,56.15
2018-09-27T04:41:39.923Z,56.18
2018-09-27T04:42:11.515Z,56.17
2018-09-27T04:42:43.109Z,56.19
2018-09-27T04:43:14.710Z,56.21
2018-09-27T04:43:46.315Z,56.20
2018-09-27T04:44:17.941Z,56.25
2018-09-27T04:44:49.536Z,56.14
2018-09-27T04:45:21.128Z,56.20
2018-09-27T04:45:52.792Z,56.28
2018-09-27T04:46:24.361Z,56.17
2018-09-27T04:46:55.962Z,56.20
2018-09-27T04:47:27.552Z,56.24
2018-09-27T04:47:59.148Z,56.29
2018-09-27T04:48:30.744Z,56.23
2018-09-27T04:49:02.375Z,56.25
2018-09-27T04:49:33.958Z,56.29
2018-09-27T04:50:05.953Z,56.25
2018-09-27T04:50:37.559Z,56.24
2018-09-27T04:51:09.152Z,56.31
2018-09-27T04:51:40.788Z,56.31
2018-09-27T04:52:12.352Z,56.26
2018-09-27T04:52:43.947Z,56.35
2018-09-27T04:53:15.541Z,56.29
2018-09-27T04:53:47.169Z,56.32
2018-09-27T04:54:18.803Z,56.32
2018-09-27T04:54:50.399Z,56.31
2018-09-27T04:55:21.993Z,56.34
2018-09-27T04:55:53.588Z,56.31
2018-09-27T04:56:25.175Z,56.27
2018-09-27T04:56:56.764Z,56.33
2018-09-27T04:57:28.384Z,56.34
2018-09-27T04:57:59.975Z,56.36
2018-09-27T04:58:31.579Z,56.31
2018-09-27T04:59:03.204Z,56.36
2018-09-27T04:59:34.842Z,56.38
2018-09-27T05:00:06.523Z,56.36
2018-09-27T05:00:38.043Z,56.37
2018-09-27T05:01:09.633Z,56.32
2018-09-27T05:01:41.224Z,56.35
2018-09-27T05:02:12.817Z,56.34
2018-09-27T05:02:44.427Z,56.34
2018-09-27T05:03:16.017Z,56.36
2018-09-27T05:03:47.694Z,56.36
2018-09-27T05:04:19.271Z,56.31
2018-09-27T05:04:50.865Z,56.28
2018-09-27T05:05:22.452Z,56.31
2018-09-27T05:05:54.047Z,56.32
2018-09-27T05:06:25.670Z,56.30
2018-09-27T05:06:57.257Z,56.27
2018-09-27T05:07:28.850Z,56.24
2018-09-27T05:08:00.439Z,56.18
2018-09-27T05:08:32.023Z,56.16
2018-09-27T05:09:03.631Z,56.14
2018-09-27T05:09:35.297Z,56.08
2018-09-27T05:10:06.864Z,56.05
2018-09-27T05:10:38.457Z,56.01
2018-09-27T05:11:10.048Z,55.97
2018-09-27T05:11:41.655Z,55.95
2018-09-27T05:12:13.258Z,55.92
2018-09-27T05:12:44.848Z,55.83
2018-09-27T05:13:16.440Z,55.81
2018-09-27T05:13:48.042Z,55.78
2018-09-27T05:14:19.668Z,55.72
2018-09-27T05:14:51.271Z,55.70
2018-09-27T05:15:22.901Z,55.68
2018-09-27T05:15:54.544Z,55.65
2018-09-27T05:16:26.113Z,55.62
2018-09-27T05:16:57.690Z,55.60
2018-09-27T05:17:29.268Z,55.58
2018-09-27T05:18:00.861Z,55.56
2018-09-27T05:18:32.453Z,55.55
2018-09-27T05:19:04.066Z,55.50
2018-09-27T05:19:35.682Z,55.47
2018-09-27T05:20:07.286Z,55.41
2018-09-27T05:20:38.867Z,55.39
2018-09-27T05:21:10.474Z,55.39
2018-09-27T05:21:42.092Z,55.37
2018-09-27T05:22:13.684Z,55.37
2018-09-27T05:22:45.290Z,55.37
2018-09-27T05:23:16.884Z,55.37
2018-09-27T05:23:48.477Z,55.35
2018-09-27T05:24:20.115Z,55.34
2018-09-27T05:24:51.694Z,55.33
2018-09-27T05:25:23.289Z,55.29
2018-09-27T05:25:54.894Z,55.27
2018-09-27T05:26:26.475Z,55.25
2018-09-27T05:26:58.073Z,55.22
2018-09-27T05:27:29.701Z,55.21
2018-09-27T05:28:01.312Z,55.21
2018-09-27T05:28:32.905Z,55.20
2018-09-27T05:29:04.506Z,55.18
2018-09-27T05:29:36.132Z,55.19
2018-09-27T05:30:07.735Z,55.19
2018-09-27T05:30:39.329Z,55.19
2018-09-27T05:31:10.924Z,55.17
2018-09-27T05:31:42.513Z,55.17
2018-09-27T05:32:14.100Z,55.14
2018-09-27T05:32:45.705Z,55.19
2018-09-27T05:33:17.286Z,55.18
2018-09-27T05:33:48.868Z,55.18
2018-09-27T05:34:20.496Z,55.16
2018-09-27T05:34:52.120Z,55.16
2018-09-27T05:35:23.713Z,55.15
2018-09-27T05:35:55.322Z,55.15
2018-09-27T05:36:26.935Z,55.15
2018-09-27T05:36:58.546Z,55.14
2018-09-27T05:37:30.127Z,55.15
2018-09-27T05:38:01.735Z,55.13
2018-09-27T05:38:33.328Z,55.15
2018-09-27T05:39:04.940Z,55.15
2018-09-27T05:39:36.622Z,55.18
2018-09-27T05:40:08.208Z,55.19
2018-09-27T05:40:39.810Z,55.18
2018-09-27T05:41:11.404Z,55.19
2018-09-27T05:41:43.010Z,55.20
2018-09-27T05:42:14.604Z,55.20
2018-09-27T05:42:46.211Z,55.21
2018-09-27T05:43:18.828Z,55.20
2018-09-27T05:43:50.426Z,55.22
2018-09-27T05:44:22.025Z,55.23
2018-09-27T05:44:53.638Z,55.23
2018-09-27T05:45:25.243Z,55.26
2018-09-27T05:45:56.862Z,55.24
2018-09-27T05:46:28.457Z,55.26
2018-09-27T05:47:00.072Z,55.26
2018-09-27T05:47:31.678Z,55.30
2018-09-27T05:48:03.277Z,55.30
2018-09-27T05:48:34.864Z,55.34
2018-09-27T05:49:06.453Z,55.35
2018-09-27T05:49:38.091Z,55.39
2018-09-27T05:50:09.684Z,55.38
2018-09-27T05:50:41.276Z,55.42
2018-09-27T05:51:12.882Z,55.43
2018-09-27T05:51:44.463Z,55.47
2018-09-27T05:52:16.052Z,55.48
2018-09-27T05:52:47.654Z,55.49
2018-09-27T05:53:19.258Z,55.51
2018-09-27T05:53:50.862Z,55.49
2018-09-27T05:54:22.457Z,55.50
2018-09-27T05:54:54.095Z,55.51
2018-09-27T05:55:25.684Z,55.53
2018-09-27T05:55:57.290Z,55.54
2018-09-27T05:56:28.896Z,55.54
2018-09-27T05:57:00.502Z,55.55
2018-09-27T05:57:32.123Z,55.56
2018-09-27T05:58:03.698Z,55.59
2018-09-27T05:58:35.283Z,55.63
2018-09-27T05:59:06.887Z,55.62
2018-09-27T05:59:38.512Z,55.63
2018-09-27T06:00:10.115Z,55.66
2018-09-27T06:00:41.698Z,55.67
2018-09-27T06:01:13.281Z,55.65
2018-09-27T06:01:44.876Z,55.70
2018-09-27T06:02:16.483Z,55.69
2018-09-27T06:02:48.080Z,55.71
2018-09-27T06:03:19.679Z,55.72
2018-09-27T06:03:51.272Z,55.73
2018-09-27T06:04:22.864Z,55.73
2018-09-27T06:04:54.505Z,55.75
2018-09-27T06:05:26.092Z,55.76
2018-09-27T06:05:57.695Z,55.75
2018-09-27T06:06:29.298Z,55.75
2018-09-27T06:07:00.893Z,55.74
2018-09-27T06:07:32.505Z,55.75
2018-09-27T06:08:04.100Z,55.77
2018-09-27T06:08:35.697Z,55.78
2018-09-27T06:09:07.289Z,55.77
2018-09-27T06:09:38.938Z,55.78
2018-09-27T06:10:10.536Z,55.80
2018-09-27T06:10:42.143Z,55.82
2018-09-27T06:11:13.791Z,55.84
2018-09-27T06:11:45.370Z,55.84
2018-09-27T06:12:16.982Z,55.83
2018-09-27T06:12:48.572Z,55.84
2018-09-27T06:13:20.174Z,55.85
2018-09-27T06:13:51.779Z,55.87
2018-09-27T06:14:23.371Z,55.83
2018-09-27T06:14:55.008Z,55.89
2018-09-27T06:15:26.653Z,55.89
2018-09-27T06:15:58.225Z,55.90
2018-09-27T06:16:29.815Z,55.91
2018-09-27T06:17:01.395Z,55.91
2018-09-27T06:17:33.002Z,55.93
2018-09-27T06:18:04.597Z,55.96
2018-09-27T06:18:36.189Z,55.96
2018-09-27T06:19:07.798Z,55.98
2018-09-27T06:19:39.412Z,55.98
2018-09-27T06:20:11.080Z,56.00
2018-09-27T06:20:42.676Z,56.01
2018-09-27T06:21:14.296Z,56.02
2018-09-27T06:21:45.884Z,56.03
2018-09-27T06:22:17.472Z,56.04
2018-09-27T06:22:49.079Z,56.08
2018-09-27T06:23:20.684Z,56.06
2018-09-27T06:23:52.284Z,56.09
2018-09-27T06:24:23.889Z,56.11
2018-09-27T06:24:55.531Z,56.11
2018-09-27T06:25:27.138Z,56.11
2018-09-27T06:25:58.758Z,56.12
2018-09-27T06:26:30.364Z,56.14
2018-09-27T06:27:01.956Z,56.13
2018-09-27T06:27:33.591Z,56.15
2018-09-27T06:28:05.161Z,56.14
2018-09-27T06:28:36.767Z,56.15
2018-09-27T06:29:08.364Z,56.16
2018-09-27T06:29:39.966Z,56.16
2018-09-27T06:30:11.592Z,56.16
2018-09-27T06:30:43.194Z,56.15
2018-09-27T06:31:14.792Z,56.17
2018-09-27T06:31:46.396Z,56.16
2018-09-27T06:32:18.002Z,56.18
2018-09-27T06:32:49.596Z,56.18
2018-09-27T06:33:21.199Z,56.18
2018-09-27T06:33:52.809Z,56.19
2018-09-27T06:34:24.415Z,56.19
2018-09-27T06:34:56.083Z,56.22
2018-09-27T06:35:27.681Z,56.20
2018-09-27T06:35:59.287Z,56.21
2018-09-27T06:36:30.891Z,56.17
2018-09-27T06:37:02.484Z,56.21
2018-09-27T06:37:34.090Z,56.19
2018-09-27T06:38:05.685Z,56.20
2018-09-27T06:38:37.285Z,56.19
2018-09-27T06:39:08.910Z,56.14
2018-09-27T06:39:40.500Z,56.15
2018-09-27T06:40:12.111Z,56.05
2018-09-27T06:40:43.714Z,56.16
2018-09-27T06:41:15.348Z,56.18
2018-09-27T06:41:46.955Z,56.20
2018-09-27T06:42:18.599Z,56.20
2018-09-27T06:42:50.186Z,56.17
2018-09-27T06:43:21.773Z,56.19
2018-09-27T06:43:53.365Z,56.16
2018-09-27T06:44:25.012Z,56.09
2018-09-27T06:44:56.628Z,56.13
2018-09-27T06:45:28.230Z,56.11
2018-09-27T06:45:59.820Z,56.12
2018-09-27T06:46:31.422Z,56.08
2018-09-27T06:47:03.030Z,56.07